Time;durP1;ratioP1;P1;durP2;ratioP2;P2;SDS_P1;SDS_P2;PMS_P1;PMS_P2;Temp;Humidity;BMP_temperature;BMP_pressure;BME280_temperature;BME280_humidity;BME280_pressure;Samples;Min_cycle;Max_cycle;Signal;HPM_P1;HPM_P2
2023/11/28 00:00:09;;;;;;;21.00;11.60;;;3.20;99.90;;;;;;5084399;28;20292;-71
2023/11/28 00:02:35;;;;;;;21.45;13.15;;;3.10;99.90;;;;;;5083110;28;20024;-68
2023/11/28 00:05:01;;;;;;;25.42;13.45;;;3.10;99.90;;;;;;5083578;28;20069;-67
2023/11/28 00:07:26;;;;;;;20.70;12.35;;;3.50;99.90;;;;;;5084098;28;20032;-68
2023/11/28 00:09:52;;;;;;;20.52;11.68;;;;;;;;;;5083117;28;20405;-68
2023/11/28 00:12:19;;;;;;;18.25;10.27;;;3.00;99.90;;;;;;5083834;28;20021;-68
2023/11/28 00:14:44;;;;;;;18.50;11.80;;;3.30;99.90;;;;;;5084018;28;20012;-68
2023/11/28 00:17:10;;;;;;;21.08;12.15;;;;;;;;;;5081098;28;20228;-68
2023/11/28 00:19:36;;;;;;;22.77;11.98;;;3.20;99.90;;;;;;5084131;28;20017;-68
2023/11/28 00:22:01;;;;;;;20.98;10.18;;;3.30;99.90;;;;;;5083076;28;20032;-70
2023/11/28 00:24:27;;;;;;;19.33;10.93;;;;;;;;;;5084020;28;20059;-69
2023/11/28 00:26:53;;;;;;;23.50;12.50;;;3.20;99.90;;;;;;5083563;28;20260;-70
2023/11/28 00:29:19;;;;;;;18.77;11.18;;;;;;;;;;5083790;28;20032;-70
2023/11/28 00:31:45;;;;;;;22.65;11.85;;;3.30;99.90;;;;;;5083952;28;20066;-70
2023/11/28 00:34:11;;;;;;;21.05;12.18;;;;;;;;;;5078701;28;20339;-70
2023/11/28 00:36:36;;;;;;;26.17;12.90;;;3.30;99.90;;;;;;5081168;28;20033;-70
2023/11/28 00:39:03;;;;;;;25.27;14.07;;;3.40;99.90;;;;;;5083740;28;20080;-70
2023/11/28 00:41:29;;;;;;;23.67;13.10;;;3.40;99.90;;;;;;5083199;28;20036;-71
2023/11/28 00:43:55;;;;;;;23.58;13.25;;;;;;;;;;5084457;28;20061;-83
2023/11/28 00:46:22;;;;;;;24.40;13.32;;;3.50;99.90;;;;;;5084239;28;20032;-70
2023/11/28 00:48:48;;;;;;;18.52;10.65;;;;;;;;;;5083806;28;20339;-70
2023/11/28 00:51:15;;;;;;;21.70;12.95;;;;;;;;;;5083212;28;20012;-75
2023/11/28 00:53:40;;;;;;;24.35;13.07;;;3.40;99.90;;;;;;5073035;28;20023;-71
2023/11/28 00:56:08;;;;;;;25.08;14.65;;;;;;;;;;5083141;28;20051;-72
2023/11/28 00:58:35;;;;;;;25.05;14.82;;;3.40;99.90;;;;;;5083220;28;20091;-71
2023/11/28 01:01:00;;;;;;;27.55;17.00;;;3.50;99.90;;;;;;5083200;28;20016;-71
2023/11/28 01:03:26;;;;;;;24.40;14.18;;;;;;;;;;5083150;28;20247;-71
2023/11/28 01:05:52;;;;;;;21.60;13.27;;;3.60;99.90;;;;;;5083129;28;20021;-71
2023/11/28 01:08:18;;;;;;;23.33;13.70;;;;;;;;;;5083163;28;20220;-70
2023/11/28 01:10:44;;;;;;;25.77;14.27;;;3.50;99.90;;;;;;5082608;28;20312;-72
2023/11/28 01:13:09;;;;;;;23.02;13.63;;;3.90;99.90;;;;;;5082852;28;20052;-71
2023/11/28 01:15:35;;;;;;;28.77;14.23;;;;;;;;;;5082973;28;20039;-71
2023/11/28 01:18:01;;;;;;;26.08;14.70;;;3.50;99.90;;;;;;5082797;28;20048;-81
2023/11/28 01:20:27;;;;;;;26.08;14.45;;;;;;;;;;5082942;28;20217;-70
2023/11/28 01:22:53;;;;;;;30.83;15.52;;;3.70;99.90;;;;;;5082453;28;20024;-70
2023/11/28 01:25:18;;;;;;;29.85;16.58;;;3.70;99.90;;;;;;5082836;28;20070;-71
2023/11/28 01:27:44;;;;;;;33.22;17.75;;;3.70;99.90;;;;;;5082563;28;20100;-71
2023/11/28 01:30:12;;;;;;;31.73;17.25;;;3.50;99.90;;;;;;5082637;28;20088;-70
2023/11/28 01:32:38;;;;;;;28.73;18.00;;;;;;;;;;5082831;28;20093;-70
2023/11/28 01:35:04;;;;;;;28.30;16.98;;;3.30;99.90;;;;;;5082412;28;20024;-71
2023/11/28 01:37:29;;;;;;;32.05;18.75;;;3.50;99.90;;;;;;5082342;28;20033;-70
2023/11/28 01:39:55;;;;;;;32.47;17.85;;;;;;;;;;5082587;28;20047;-72
2023/11/28 01:42:21;;;;;;;33.17;17.83;;;3.70;99.90;;;;;;5082379;28;20349;-71
2023/11/28 01:44:47;;;;;;;35.00;18.17;;;3.50;99.90;;;;;;5081287;28;20024;-71
2023/11/28 01:47:13;;;;;;;35.30;18.40;;;;;;;;;;5064614;28;20091;-71
2023/11/28 01:49:39;;;;;;;29.23;18.38;;;3.60;99.90;;;;;;5062228;28;20058;-71
2023/11/28 01:52:05;;;;;;;31.27;18.33;;;3.70;99.90;;;;;;5062087;28;20013;-71
2023/11/28 01:54:32;;;;;;;32.53;18.77;;;3.60;99.90;;;;;;5062159;28;20029;-71
2023/11/28 01:56:58;;;;;;;37.78;19.73;;;3.50;99.90;;;;;;5061761;28;20041;-71
2023/11/28 01:59:24;;;;;;;31.92;18.67;;;3.30;99.90;;;;;;5061804;28;20351;-71
2023/11/28 02:01:50;;;;;;;32.30;18.33;;;3.80;99.90;;;;;;5062110;28;20021;-71
2023/11/28 02:04:16;;;;;;;31.85;18.05;;;3.80;99.90;;;;;;5061701;28;20340;-71
2023/11/28 02:06:42;;;;;;;35.85;20.60;;;;;;;;;;5061826;28;20036;-71
2023/11/28 02:09:08;;;;;;;30.48;17.50;;;;;;;;;;5061719;28;20029;-70
2023/11/28 02:11:34;;;;;;;35.92;18.15;;;3.60;99.90;;;;;;5061648;28;20060;-69
2023/11/28 02:13:59;;;;;;;33.97;18.17;;;3.80;99.90;;;;;;5061612;28;20044;-70
2023/11/28 02:16:25;;;;;;;26.23;14.70;;;;;;;;;;5061287;28;20043;-70
2023/11/28 02:18:51;;;;;;;28.98;17.15;;;;;;;;;;5061500;28;20024;-70
2023/11/28 02:21:17;;;;;;;35.53;18.88;;;4.00;99.90;;;;;;5059590;28;20029;-71
2023/11/28 02:23:43;;;;;;;32.70;20.10;;;3.90;99.90;;;;;;5061802;28;20032;-71
2023/11/28 02:26:28;;;;;;;33.72;17.40;;;3.80;99.90;;;;;;5061212;28;20055;-71
2023/11/28 02:28:54;;;;;;;32.22;18.42;;;3.80;99.90;;;;;;5061359;28;20032;-71
2023/11/28 02:31:20;;;;;;;29.75;17.60;;;3.90;99.90;;;;;;5061200;28;20354;-72
2023/11/28 02:33:46;;;;;;;31.92;18.67;;;3.70;99.90;;;;;;5061185;28;20423;-72
2023/11/28 02:36:16;;;;;;;32.13;18.52;;;3.80;99.90;;;;;;5061135;28;20029;-71
2023/11/28 02:38:41;;;;;;;29.92;16.77;;;3.70;99.90;;;;;;5061258;28;20028;-72
2023/11/28 02:41:07;;;;;;;29.05;17.30;;;;;;;;;;5061145;28;20029;-71
2023/11/28 02:43:34;;;;;;;30.52;17.33;;;3.80;99.90;;;;;;5061222;28;20028;-71
2023/11/28 02:46:00;;;;;;;29.90;16.55;;;3.80;99.90;;;;;;5060990;28;20055;-71
2023/11/28 02:48:26;;;;;;;28.67;17.10;;;;;;;;;;5060960;28;20033;-71
2023/11/28 02:50:52;;;;;;;29.13;17.02;;;3.90;99.90;;;;;;5060876;28;20130;-71
2023/11/28 02:53:17;;;;;;;32.90;17.80;;;3.80;99.90;;;;;;5061453;28;20029;-72
2023/11/28 02:55:44;;;;;;;34.03;18.67;;;3.80;99.90;;;;;;5080469;28;20032;-72
2023/11/28 02:58:10;;;;;;;31.42;18.65;;;;;;;;;;5080959;28;20060;-71
2023/11/28 03:00:36;;;;;;;30.58;17.92;;;;;;;;;;5080788;28;20024;-71
2023/11/28 03:03:01;;;;;;;29.83;18.83;;;3.90;99.90;;;;;;5080604;28;20020;-71
2023/11/28 03:05:27;;;;;;;32.63;18.10;;;3.60;99.90;;;;;;5080822;28;20086;-71
2023/11/28 03:07:53;;;;;;;32.03;18.58;;;3.60;99.90;;;;;;5080997;28;20228;-71
2023/11/28 03:10:19;;;;;;;32.78;18.33;;;3.70;99.90;;;;;;5080805;28;20033;-71
2023/11/28 03:12:45;;;;;;;30.92;16.42;;;4.10;99.90;;;;;;5080722;28;20130;-72
2023/11/28 03:15:11;;;;;;;23.95;14.10;;;;;;;;;;5079336;28;20368;-71
2023/11/28 03:17:37;;;;;;;32.20;16.00;;;3.90;99.90;;;;;;5080431;28;20028;-71
2023/11/28 03:20:03;;;;;;;30.95;17.27;;;3.70;99.90;;;;;;5080322;28;20309;-71
2023/11/28 03:22:29;;;;;;;30.38;18.05;;;;;;;;;;5080321;28;20095;-71
2023/11/28 03:24:55;;;;;;;27.90;15.30;;;;;;;;;;5080468;28;20029;-71
2023/11/28 03:27:21;;;;;;;34.95;17.65;;;;;;;;;;5080221;28;20270;-71
2023/11/28 03:29:47;;;;;;;32.22;18.85;;;;;;;;;;5080346;28;20024;-71
2023/11/28 03:32:13;;;;;;;29.02;16.75;;;3.70;99.90;;;;;;5080366;28;20308;-72
2023/11/28 03:34:40;;;;;;;28.77;15.70;;;3.80;99.90;;;;;;5078029;28;20033;-71
2023/11/28 03:37:06;;;;;;;30.25;15.55;;;;;;;;;;5079191;28;20036;-71
2023/11/28 03:39:31;;;;;;;23.60;13.93;;;3.80;99.90;;;;;;5080316;28;20349;-71
2023/11/28 03:41:57;;;;;;;23.27;14.27;;;3.90;99.90;;;;;;5080330;28;20095;-71
2023/11/28 03:44:23;;;;;;;16.60;9.43;;;3.80;99.90;;;;;;5080233;28;20051;-71
2023/11/28 03:46:48;;;;;;;29.30;16.92;;;3.90;99.90;;;;;;5080222;28;20039;-70
2023/11/28 03:49:14;;;;;;;29.85;15.77;;;;;;;;;;5080062;28;20028;-70
2023/11/28 03:51:40;;;;;;;31.75;17.92;;;4.10;99.90;;;;;;5076953;28;20033;-70
2023/11/28 03:54:06;;;;;;;29.58;16.10;;;;;;;;;;5080579;28;20036;-71
2023/11/28 03:56:31;;;;;;;27.23;15.88;;;4.10;99.90;;;;;;5080136;28;20036;-71
2023/11/28 03:58:57;;;;;;;29.33;16.08;;;4.00;99.90;;;;;;5079949;28;20031;-70
2023/11/28 04:01:23;;;;;;;33.60;17.23;;;3.90;99.90;;;;;;5080217;28;20017;-69
2023/11/28 04:03:49;;;;;;;31.05;17.52;;;;;;;;;;5080320;28;20021;-69
2023/11/28 04:06:15;;;;;;;28.02;15.85;;;3.90;99.90;;;;;;5080292;28;20025;-71
2023/11/28 04:08:41;;;;;;;25.40;13.95;;;;;;;;;;5080169;28;20373;-70
2023/11/28 04:11:07;;;;;;;25.50;14.35;;;4.20;99.90;;;;;;5080306;28;20062;-68
2023/11/28 04:13:33;;;;;;;17.08;9.13;;;3.90;99.90;;;;;;5079916;28;20016;-70
2023/11/28 04:15:58;;;;;;;19.60;9.60;;;4.20;99.90;;;;;;5079998;28;20020;-71
2023/11/28 04:18:24;;;;;;;18.27;10.55;;;4.10;99.90;;;;;;5079997;28;20040;-71
2023/11/28 04:20:50;;;;;;;15.55;9.05;;;;;;;;;;5080208;28;20036;-72
2023/11/28 04:23:16;;;;;;;20.10;10.35;;;4.20;99.90;;;;;;5066779;28;20036;-71
2023/11/28 04:25:42;;;;;;;17.33;10.18;;;4.20;99.90;;;;;;5059595;28;20040;-71
2023/11/28 04:28:08;;;;;;;16.52;9.48;;;4.40;99.90;;;;;;5058659;28;20099;-69
2023/11/28 04:30:33;;;;;;;14.65;8.88;;;4.40;99.90;;;;;;5060004;28;20020;-68
2023/11/28 04:32:59;;;;;;;15.75;9.23;;;;;;;;;;5059816;28;20021;-69
2023/11/28 04:35:25;;;;;;;15.80;9.43;;;4.50;99.90;;;;;;5059728;28;20067;-70
2023/11/28 04:37:50;;;;;;;14.95;8.65;;;4.50;99.90;;;;;;5059720;28;20040;-69
2023/11/28 04:40:16;;;;;;;16.77;9.73;;;;;;;;;;5059867;28;20086;-71
2023/11/28 04:42:42;;;;;;;16.13;9.55;;;;;;;;;;5059730;28;20021;-71
2023/11/28 04:45:10;;;;;;;21.13;10.70;;;4.40;99.90;;;;;;5062089;28;20018;-70
2023/11/28 04:47:36;;;;;;;16.55;9.10;;;;;;;;;;5063221;28;20052;-70
2023/11/28 04:50:01;;;;;;;16.80;9.50;;;4.40;99.90;;;;;;5063218;28;20315;-70
2023/11/28 04:52:27;;;;;;;18.23;10.57;;;;;;;;;;5063077;28;20321;-69
2023/11/28 04:54:53;;;;;;;18.50;11.20;;;;;;;;;;5063358;28;20029;-70
2023/11/28 04:57:19;;;;;;;22.80;12.35;;;;;;;;;;5061988;28;20028;-71
2023/11/28 04:59:45;;;;;;;16.98;9.77;;;4.50;99.90;;;;;;5063347;28;20044;-71
2023/11/28 05:02:11;;;;;;;22.25;12.32;;;;;;;;;;5062054;28;20229;-71
2023/11/28 05:04:38;;;;;;;22.08;13.60;;;4.50;99.90;;;;;;5063153;28;20213;-70
2023/11/28 05:07:04;;;;;;;29.23;14.18;;;;;;;;;;5061681;28;20032;-70
2023/11/28 05:09:30;;;;;;;25.10;14.98;;;4.30;99.90;;;;;;5063063;28;20131;-69
2023/11/28 05:11:55;;;;;;;29.33;17.15;;;4.90;99.90;;;;;;5062788;28;20032;-72
2023/11/28 05:14:22;;;;;;;28.98;16.17;;;;;;;;;;5062989;28;20090;-70
2023/11/28 05:16:48;;;;;;;26.17;14.35;;;;;;;;;;5062581;28;20048;-70
2023/11/28 05:19:15;;;;;;;28.58;17.48;;;4.20;99.90;;;;;;5062661;28;20017;-71
2023/11/28 05:21:40;;;;;;;28.88;15.68;;;4.50;99.90;;;;;;5062874;28;20063;-72
2023/11/28 05:24:08;;;;;;;29.10;18.73;;;4.10;99.90;;;;;;5062880;28;20025;-71
2023/11/28 05:26:34;;;;;;;34.33;19.77;;;4.30;99.90;;;;;;5062589;28;20056;-70
2023/11/28 05:29:00;;;;;;;34.80;19.80;;;;;;;;;;5062689;28;20059;-70
2023/11/28 05:31:26;;;;;;;32.85;19.80;;;3.90;99.90;;;;;;5062781;28;20052;-71
2023/11/28 05:33:54;;;;;;;34.47;19.83;;;4.00;99.90;;;;;;5062989;28;20048;-70
2023/11/28 05:36:20;;;;;;;35.33;17.45;;;;;;;;;;5062906;28;20088;-71
2023/11/28 05:38:45;;;;;;;28.33;15.57;;;4.30;99.90;;;;;;5062218;28;20336;-71
2023/11/28 05:41:11;;;;;;;34.05;15.77;;;3.80;99.90;;;;;;5062331;28;20016;-71
2023/11/28 05:43:37;;;;;;;18.05;10.65;;;;;;;;;;5066126;28;20279;-71
2023/11/28 05:46:03;;;;;;;31.42;17.70;;;;;;;;;;5070354;28;20336;-71
2023/11/28 05:48:30;;;;;;;31.50;18.55;;;;;;;;;;5082199;28;20040;-71
2023/11/28 05:50:56;;;;;;;28.08;16.92;;;;;;;;;;5071633;28;20072;-71
2023/11/28 05:53:22;;;;;;;31.73;18.83;;;;;;;;;;5076621;28;20032;-69
2023/11/28 05:55:48;;;;;;;30.70;18.38;;;4.00;99.90;;;;;;5063493;28;20021;-71
2023/11/28 05:58:14;;;;;;;26.45;16.77;;;;;;;;;;5060623;28;20033;-69
2023/11/28 06:00:41;;;;;;;29.73;18.10;;;4.40;99.90;;;;;;5061711;28;20043;-69
2023/11/28 06:03:07;;;;;;;30.55;18.02;;;3.90;99.90;;;;;;5061450;28;20028;-69
2023/11/28 06:05:33;;;;;;;35.80;20.05;;;4.40;99.90;;;;;;5076924;28;20314;-69
2023/11/28 06:07:59;;;;;;;31.52;19.05;;;3.80;99.90;;;;;;5081151;28;20078;-69
2023/11/28 06:10:26;;;;;;;35.67;20.77;;;3.70;99.90;;;;;;5080825;28;20027;-69
2023/11/28 06:12:53;;;;;;;50.85;26.42;;;3.70;99.90;;;;;;5081077;28;20322;-69
2023/11/28 06:15:19;;;;;;;54.13;29.50;;;;;;;;;;5079791;28;20016;-69
2023/11/28 06:17:45;;;;;;;31.15;17.58;;;;;;;;;;5078788;28;20051;-69
2023/11/28 06:20:14;;;;;;;105.45;43.53;;;3.60;99.90;;;;;;5079813;28;20208;-69
2023/11/28 06:22:44;;;;;;;85.78;36.20;;;3.60;99.90;;;;;;5080025;28;20071;-69
2023/11/28 06:25:10;;;;;;;73.28;31.25;;;3.70;99.90;;;;;;5081301;28;20194;-69
2023/11/28 06:27:36;;;;;;;47.15;23.08;;;;;;;;;;5079806;28;20305;-69
2023/11/28 06:30:04;;;;;;;46.88;23.92;;;3.40;99.90;;;;;;5081284;28;20051;-69
2023/11/28 06:32:30;;;;;;;47.60;23.30;;;;;;;;;;5081282;28;20028;-69
2023/11/28 06:34:55;;;;;;;38.95;20.75;;;3.60;99.90;;;;;;5081360;28;20019;-69
2023/11/28 06:37:22;;;;;;;48.17;24.27;;;;;;;;;;5081085;28;20059;-66
2023/11/28 06:39:48;;;;;;;42.28;21.83;;;3.30;99.90;;;;;;5080928;28;20070;-68
2023/11/28 06:42:15;;;;;;;26.20;14.90;;;3.70;99.90;;;;;;5081219;28;20317;-68
2023/11/28 06:44:41;;;;;;;27.52;15.50;;;;;;;;;;5081146;28;20255;-68
2023/11/28 06:47:07;;;;;;;28.40;15.70;;;3.70;99.90;;;;;;5080949;28;20308;-68
2023/11/28 06:49:33;;;;;;;29.65;17.38;;;;;;;;;;5080970;28;20023;-68
2023/11/28 06:52:01;;;;;;;31.30;16.70;;;3.90;99.90;;;;;;5080909;28;20336;-68
2023/11/28 06:54:30;;;;;;;26.98;15.57;;;3.60;99.90;;;;;;5079624;28;20016;-67
2023/11/28 06:56:56;;;;;;;30.52;14.30;;;3.80;99.90;;;;;;5080191;28;20052;-67
2023/11/28 06:59:22;;;;;;;25.55;15.00;;;3.70;99.90;;;;;;5078104;28;20757;-68
2023/11/28 07:01:50;;;;;;;21.55;13.07;;;3.80;99.90;;;;;;5079237;28;20056;-67
2023/11/28 07:04:17;;;;;;;20.73;11.90;;;;;;;;;;5080291;28;20220;-67
2023/11/28 07:06:42;;;;;;;16.95;10.10;;;3.90;99.90;;;;;;5080388;28;20031;-68
2023/11/28 07:09:08;;;;;;;17.05;10.30;;;3.70;99.90;;;;;;5080783;28;20020;-68
2023/11/28 07:11:34;;;;;;;11.23;6.80;;;;;;;;;;5079513;28;20201;-67
2023/11/28 07:14:01;;;;;;;19.95;11.32;;;3.80;99.90;;;;;;5079423;28;20297;-68
2023/11/28 07:16:27;;;;;;;12.15;7.07;;;4.00;99.90;;;;;;5079575;28;20062;-68
2023/11/28 07:18:52;;;;;;;27.15;15.32;;;4.10;99.90;;;;;;5079716;28;20212;-67
2023/11/28 07:21:18;;;;;;;27.17;14.48;;;4.50;99.90;;;;;;5080433;28;20269;-68
2023/11/28 07:23:44;;;;;;;25.92;14.63;;;;;;;;;;5080539;28;20024;-65
2023/11/28 07:26:11;;;;;;;22.23;14.00;;;;;;;;;;5080416;28;20059;-65
2023/11/28 07:28:36;;;;;;;31.23;14.65;;;4.40;99.90;;;;;;5080895;28;20047;-66
2023/11/28 07:31:02;;;;;;;31.77;15.68;;;4.30;99.90;;;;;;5079002;28;20216;-65
2023/11/28 07:33:28;;;;;;;25.08;12.57;;;3.70;99.90;;;;;;5079974;28;20385;-66
2023/11/28 07:35:54;;;;;;;25.73;14.13;;;;;;;;;;5080119;28;20021;-65
2023/11/28 07:38:24;;;;;;;27.15;14.93;;;;;;;;;;5079964;28;20074;-66
2023/11/28 07:40:50;;;;;;;16.10;8.20;;;4.20;99.90;;;;;;5080254;28;20046;-65
2023/11/28 07:43:16;;;;;;;45.28;16.75;;;;;;;;;;5080375;28;20025;-65
2023/11/28 07:45:41;;;;;;;18.50;8.98;;;4.20;99.90;;;;;;5080427;28;20025;-65
2023/11/28 07:48:07;;;;;;;10.65;7.22;;;4.20;99.90;;;;;;5080517;28;20016;-67
2023/11/28 07:50:34;;;;;;;15.90;7.60;;;4.50;99.90;;;;;;5080067;28;20039;-68
2023/11/28 07:53:00;;;;;;;10.40;6.28;;;;;;;;;;5080177;28;20132;-66
2023/11/28 07:55:25;;;;;;;16.30;9.25;;;4.50;99.90;;;;;;5076518;28;20052;-65
2023/11/28 07:57:51;;;;;;;15.90;10.10;;;;;;;;;;5065725;28;20062;-65
2023/11/28 08:00:20;;;;;;;28.38;15.27;;;4.70;99.90;;;;;;5062080;28;20036;-66
2023/11/28 08:02:46;;;;;;;30.07;15.03;;;4.50;99.90;;;;;;5081318;28;20028;-66
2023/11/28 08:05:12;;;;;;;24.98;13.80;;;;;;;;;;5080781;28;20024;-66
2023/11/28 08:07:38;;;;;;;29.42;15.68;;;4.50;99.90;;;;;;5064319;28;20088;-65
2023/11/28 08:10:11;;;;;;;28.10;14.63;;;4.60;99.90;;;;;;5060151;28;20217;-67
2023/11/28 08:12:38;;;;;;;31.45;17.25;;;;;;;;;;5061600;28;20092;-66
2023/11/28 08:15:05;;;;;;;33.88;18.00;;;4.80;99.90;;;;;;5078229;28;20025;-65
2023/11/28 08:17:31;;;;;;;36.70;19.30;;;;;;;;;;5060004;28;20304;-66
2023/11/28 08:19:58;;;;;;;41.70;22.65;;;;;;;;;;5068233;28;20025;-66
2023/11/28 08:22:25;;;;;;;43.50;22.20;;;;;;;;;;5083191;28;20058;-66
2023/11/28 08:24:51;;;;;;;40.97;20.73;;;;;;;;;;5063879;28;20044;-66
2023/11/28 08:27:19;;;;;;;37.00;20.48;;;4.40;99.90;;;;;;5063616;28;20135;-66
2023/11/28 08:29:45;;;;;;;29.77;18.52;;;4.60;99.90;;;;;;5063802;28;20020;-65
2023/11/28 08:32:12;;;;;;;31.50;18.52;;;;;;;;;;5065021;28;20040;-67
2023/11/28 08:34:38;;;;;;;38.50;19.58;;;4.40;99.90;;;;;;5063865;28;20028;-66
2023/11/28 08:37:04;;;;;;;33.08;19.67;;;4.30;99.90;;;;;;5064515;28;20040;-66
2023/11/28 08:39:30;;;;;;;32.13;16.65;;;;;;;;;;5063703;28;20308;-65
2023/11/28 08:41:56;;;;;;;34.85;17.63;;;4.60;99.90;;;;;;5063453;28;20076;-66
2023/11/28 08:44:22;;;;;;;32.95;17.90;;;;;;;;;;5063423;28;20025;-66
2023/11/28 08:46:48;;;;;;;32.80;18.35;;;;;;;;;;5063253;28;20162;-66
2023/11/28 08:49:15;;;;;;;35.70;18.52;;;4.70;99.90;;;;;;5069181;28;20021;-66
2023/11/28 08:51:42;;;;;;;42.50;19.65;;;;;;;;;;5083238;28;20062;-66
2023/11/28 08:54:08;;;;;;;52.28;25.23;;;;;;;;;;5066592;28;20040;-67
2023/11/28 08:56:34;;;;;;;82.63;36.63;;;4.30;99.90;;;;;;5062996;28;20037;-66
2023/11/28 08:58:59;;;;;;;69.90;33.20;;;4.50;99.90;;;;;;5063240;28;20289;-66
2023/11/28 09:01:25;;;;;;;55.13;30.10;;;4.60;99.90;;;;;;5061855;28;20025;-66
2023/11/28 09:03:52;;;;;;;39.20;23.27;;;;;;;;;;5062822;28;20047;-66
2023/11/28 09:06:18;;;;;;;38.00;20.95;;;4.40;99.90;;;;;;5062938;28;20283;-66
2023/11/28 09:08:44;;;;;;;36.72;22.23;;;;;;;;;;5062689;28;20024;-65
2023/11/28 09:11:09;;;;;;;35.10;20.70;;;4.80;99.90;;;;;;5062797;28;20312;-66
2023/11/28 09:13:35;;;;;;;44.25;22.85;;;4.70;99.90;;;;;;5062974;28;20035;-66
2023/11/28 09:16:08;;;;;;;36.67;21.75;;;;;;;;;;5062698;28;20033;-67
2023/11/28 09:18:34;;;;;;;32.58;19.15;;;;;;;;;;5062621;28;20293;-67
2023/11/28 09:21:04;;;;;;;33.75;19.38;;;5.00;99.90;;;;;;5085611;28;20054;-67
2023/11/28 09:23:40;;;;;;;33.50;19.23;;;5.30;99.90;;;;;;5080369;28;20085;-66
2023/11/28 09:26:05;;;;;;;34.80;22.42;;;5.50;99.90;;;;;;5100667;28;20048;-66
2023/11/28 09:28:34;;;;;;;34.58;19.38;;;;;;;;;;5098610;28;20024;-66
2023/11/28 09:30:59;;;;;;;32.42;19.73;;;5.00;99.90;;;;;;5082617;28;20037;-66
2023/11/28 09:33:25;;;;;;;29.90;18.88;;;5.30;99.90;;;;;;5082506;28;20013;-66
2023/11/28 09:35:53;;;;;;;33.53;19.70;;;;;;;;;;5082249;28;20092;-66
2023/11/28 09:38:18;;;;;;;33.00;20.75;;;5.20;99.90;;;;;;5082179;28;20044;-66
2023/11/28 09:40:44;;;;;;;28.67;17.25;;;;;;;;;;5086951;28;20024;-66
2023/11/28 09:43:10;;;;;;;31.00;19.63;;;;;;;;;;5102388;28;20077;-66
2023/11/28 09:45:40;;;;;;;29.27;18.50;;;5.50;99.90;;;;;;5101593;28;20020;-66
2023/11/28 09:48:09;;;;;;;;;;;5.70;99.90;;;;;;5082766;28;20304;-66
2023/11/28 09:50:35;;;;;;;24.95;16.58;;;5.80;99.90;;;;;;5081928;28;20085;-66
2023/11/28 09:53:02;;;;;;;26.95;17.20;;;5.90;99.90;;;;;;5082028;28;20356;-67
2023/11/28 09:55:29;;;;;;;28.85;16.17;;;6.10;99.90;;;;;;5082241;28;20035;-68
2023/11/28 09:57:56;;;;;;;27.73;16.65;;;6.20;99.90;;;;;;5081977;28;20040;-68
2023/11/28 10:00:22;;;;;;;25.77;15.88;;;6.20;99.90;;;;;;5082179;28;20033;-66
2023/11/28 10:02:54;;;;;;;27.15;15.35;;;6.20;99.90;;;;;;5082016;28;20059;-66
2023/11/28 10:05:20;;;;;;;21.45;12.68;;;;;;;;;;5082074;28;20091;-66
2023/11/28 10:07:53;;;;;;;25.63;14.90;;;6.40;99.90;;;;;;5083783;28;20027;-66
2023/11/28 10:10:21;;;;;;;15.73;10.93;;;6.50;99.90;;;;;;5080891;28;20017;-66
2023/11/28 10:12:50;;;;;;;18.35;11.88;;;6.50;99.90;;;;;;5081744;28;20020;-66
2023/11/28 10:15:21;;;;;;;20.08;11.75;;;6.30;99.90;;;;;;5081512;28;20020;-65
2023/11/28 10:17:48;;;;;;;20.17;13.07;;;6.40;99.90;;;;;;5090828;28;20102;-66
2023/11/28 10:20:14;;;;;;;21.60;13.27;;;5.70;99.90;;;;;;5101627;28;20232;-66
2023/11/28 10:22:49;;;;;;;20.23;13.30;;;6.40;99.90;;;;;;5101701;28;20577;-66
2023/11/28 10:25:15;;;;;;;18.25;11.75;;;6.70;99.90;;;;;;5101601;28;20035;-66
2023/11/28 10:27:42;;;;;;;16.85;11.13;;;6.30;99.90;;;;;;5100246;28;20054;-66
2023/11/28 10:30:16;;;;;;;19.80;12.63;;;6.40;99.90;;;;;;5101833;28;20083;-66
2023/11/28 10:32:42;;;;;;;15.55;10.73;;;6.40;99.90;;;;;;5101642;28;20186;-66
2023/11/28 10:35:08;;;;;;;17.90;12.05;;;6.30;99.90;;;;;;5101488;28;20016;-66
2023/11/28 10:37:39;;;;;;;18.08;12.27;;;6.30;99.90;;;;;;5101371;28;20043;-66
2023/11/28 10:40:18;;;;;;;15.98;10.38;;;6.50;99.90;;;;;;5101614;28;20032;-66
2023/11/28 10:42:45;;;;;;;15.90;10.75;;;6.40;99.90;;;;;;5101018;28;20020;-66
2023/11/28 10:45:13;;;;;;;18.63;11.20;;;6.20;99.90;;;;;;5101551;28;20064;-67
2023/11/28 10:47:41;;;;;;;19.92;12.25;;;6.00;99.90;;;;;;5101510;28;20041;-66
2023/11/28 10:50:09;;;;;;;16.45;11.43;;;6.30;99.90;;;;;;5091497;28;20088;-68
2023/11/28 10:52:39;;;;;;;20.23;11.55;;;6.10;99.90;;;;;;5080940;28;20058;-66
2023/11/28 10:55:12;;;;;;;20.52;12.35;;;6.20;99.90;;;;;;5081184;28;20028;-66
2023/11/28 10:57:59;;;;;;;18.70;11.73;;;6.10;99.90;;;;;;5080882;28;20031;-66
2023/11/28 11:00:25;;;;;;;18.92;12.38;;;6.10;99.90;;;;;;5081201;28;20029;-66
2023/11/28 11:02:56;;;;;;;18.42;11.95;;;6.20;99.90;;;;;;5081252;28;20029;-66
2023/11/28 11:05:23;;;;;;;19.98;12.93;;;;;;;;;;5080955;28;20091;-67
2023/11/28 11:07:50;;;;;;;23.20;14.43;;;6.00;99.90;;;;;;5079837;28;20020;-66
2023/11/28 11:10:17;;;;;;;18.75;11.73;;;;;;;;;;5080916;28;20028;-67
2023/11/28 11:12:46;;;;;;;18.63;12.43;;;6.30;99.90;;;;;;5081132;28;20008;-66
2023/11/28 11:15:31;;;;;;;17.55;12.13;;;6.30;99.90;;;;;;5080881;28;20115;-66
2023/11/28 11:17:57;;;;;;;19.88;12.57;;;;;;;;;;5080558;28;20340;-66
2023/11/28 11:20:25;;;;;;;22.48;12.95;;;6.20;99.90;;;;;;5080820;28;20031;-66
2023/11/28 11:22:56;;;;;;;20.15;12.75;;;6.30;99.90;;;;;;5080644;28;20347;-66
2023/11/28 11:25:40;;;;;;;19.15;12.75;;;6.40;99.90;;;;;;5080411;28;20039;-68
2023/11/28 11:28:08;;;;;;;18.50;12.25;;;6.40;99.90;;;;;;5080688;28;20052;-66
2023/11/28 11:30:36;;;;;;;20.30;13.50;;;6.50;99.90;;;;;;5080727;28;20017;-66
2023/11/28 11:33:02;;;;;;;22.00;13.60;;;;;;;;;;5080690;28;20125;-66
2023/11/28 11:35:30;;;;;;;19.58;12.13;;;6.40;99.90;;;;;;5080519;28;20020;-67
2023/11/28 11:37:58;;;;;;;16.92;11.18;;;;;;;;;;5080527;28;20127;-66
2023/11/28 11:40:24;;;;;;;18.10;10.90;;;6.40;99.90;;;;;;5080176;28;20123;-67
2023/11/28 11:42:49;;;;;;;18.40;11.65;;;6.30;99.90;;;;;;5079406;28;20024;-67
2023/11/28 11:45:20;;;;;;;17.95;12.70;;;6.20;99.90;;;;;;5080089;28;20020;-66
2023/11/28 11:47:46;;;;;;;18.67;12.40;;;6.30;99.90;;;;;;5079406;28;20051;-67
2023/11/28 11:50:16;;;;;;;21.08;12.90;;;;;;;;;;5080173;28;20025;-68
2023/11/28 11:52:42;;;;;;;18.35;11.00;;;;;;;;;;5080156;28;20348;-67
2023/11/28 11:55:12;;;;;;;20.80;13.88;;;5.60;99.90;;;;;;5081413;28;20095;-67
2023/11/28 11:57:38;;;;;;;20.17;13.82;;;;;;;;;;5083054;28;20033;-66
2023/11/28 12:00:06;;;;;;;24.75;14.68;;;5.90;99.90;;;;;;5082808;28;20293;-67
2023/11/28 12:02:38;;;;;;;21.10;13.20;;;6.00;99.90;;;;;;5082624;28;20296;-69
2023/11/28 12:05:05;;;;;;;25.33;15.65;;;6.00;99.90;;;;;;5082613;28;20255;-67
2023/11/28 12:07:31;;;;;;;24.58;15.18;;;;;;;;;;5082683;28;20019;-67
2023/11/28 12:09:57;;;;;;;22.70;15.13;;;;;;;;;;5083425;28;20048;-68
2023/11/28 12:12:23;;;;;;;23.45;14.93;;;;;;;;;;5083857;28;20186;-67
2023/11/28 12:14:49;;;;;;;24.77;15.23;;;;;;;;;;5080892;28;20055;-66
2023/11/28 12:17:20;;;;;;;27.40;16.00;;;6.10;99.90;;;;;;5084441;28;20103;-67
2023/11/28 12:19:46;;;;;;;22.98;15.10;;;6.20;99.90;;;;;;5084349;28;20439;-67
2023/11/28 12:22:13;;;;;;;21.42;14.48;;;;;;;;;;5084011;28;20316;-67
2023/11/28 12:24:39;;;;;;;23.98;15.02;;;6.60;99.90;;;;;;5083961;28;20035;-67
2023/11/28 12:27:05;;;;;;;24.02;14.57;;;6.30;99.90;;;;;;5083561;28;20053;-67
2023/11/28 12:29:32;;;;;;;24.70;14.30;;;6.40;99.90;;;;;;5081470;28;20027;-68
2023/11/28 12:31:58;;;;;;;20.48;14.05;;;6.30;99.90;;;;;;5082732;28;20100;-67
2023/11/28 12:34:28;;;;;;;24.42;14.63;;;6.30;99.90;;;;;;5083701;28;20025;-66
2023/11/28 12:36:58;;;;;;;23.00;13.18;;;6.50;99.90;;;;;;5083515;28;20103;-66
2023/11/28 12:39:25;;;;;;;22.27;13.25;;;6.20;99.90;;;;;;5083476;28;20328;-68
2023/11/28 12:41:53;;;;;;;23.75;13.13;;;6.20;99.90;;;;;;5083571;28;20034;-67
2023/11/28 12:44:30;;;;;;;21.30;14.55;;;6.10;99.90;;;;;;5083145;28;20360;-67
2023/11/28 12:46:59;;;;;;;23.20;14.80;;;5.90;99.90;;;;;;5074906;28;20033;-67
2023/11/28 12:49:27;;;;;;;24.90;14.38;;;5.90;99.90;;;;;;5078889;28;20062;-66
2023/11/28 12:51:57;;;;;;;23.45;15.15;;;6.00;99.90;;;;;;5080909;28;20043;-66
2023/11/28 12:54:24;;;;;;;26.40;15.88;;;5.80;99.90;;;;;;5063500;28;20036;-66
2023/11/28 12:56:52;;;;;;;21.88;14.77;;;;;;;;;;5063929;28;20033;-65
2023/11/28 12:59:19;;;;;;;25.75;15.15;;;6.00;99.90;;;;;;5079542;28;20043;-66
2023/11/28 13:01:45;;;;;;;24.00;13.57;;;6.00;99.90;;;;;;5082990;28;20198;-66
2023/11/28 13:04:13;;;;;;;23.35;14.57;;;5.70;99.90;;;;;;5082971;28;20016;-67